Time;durP1;ratioP1;P1;durP2;ratioP2;P2;SDS_P1;SDS_P2;PMS_P1;PMS_P2;Temp;Humidity;BMP_temperature;BMP_pressure;BME280_temperature;BME280_humidity;BME280_pressure;Samples;Min_cycle;Max_cycle;Signal;HPM_P1;HPM_P2
2022/01/22 00:01:05;;;;;;;1.77;0.40;;;1.00;99.90;;;;;;5132405;27;20229;-73
2022/01/22 00:03:32;;;;;;;0.52;0.52;;;0.80;99.90;;;;;;5151133;27;20162;-73
2022/01/22 00:05:58;;;;;;;1.42;0.80;;;0.60;99.90;;;;;;5132183;27;20193;-76
2022/01/22 00:08:24;;;;;;;2.08;0.68;;;0.30;99.90;;;;;;5150977;27;20158;-75
2022/01/22 00:10:51;;;;;;;1.13;0.93;;;0.10;99.90;;;;;;5150457;27;20185;-75
2022/01/22 00:15:48;;;;;;;0.55;0.55;;;-0.40;99.90;;;;;;5151084;27;20186;-75
2022/01/22 00:18:14;;;;;;;0.95;0.70;;;-0.50;99.90;;;;;;5150525;27;20195;-76
2022/01/22 00:20:41;;;;;;;1.33;0.70;;;-0.50;99.90;;;;;;5150742;27;20202;-75
2022/01/22 00:23:07;;;;;;;1.75;0.80;;;-0.70;99.90;;;;;;5091543;28;20198;-75
2022/01/22 00:25:33;;;;;;;0.70;0.50;;;-0.80;99.90;;;;;;5124108;27;20162;-73
2022/01/22 00:28:01;;;;;;;0.65;0.60;;;-0.90;99.90;;;;;;5132231;27;20174;-75
2022/01/22 00:30:28;;;;;;;0.82;0.60;;;-1.00;99.90;;;;;;5150602;27;20233;-76
2022/01/22 00:32:54;;;;;;;1.48;1.33;;;-0.90;99.90;;;;;;5150522;27;20193;-75
2022/01/22 00:35:22;;;;;;;3.25;0.70;;;-0.90;99.90;;;;;;5149867;27;20241;-75
2022/01/22 00:37:50;;;;;;;0.98;0.57;;;-0.90;99.90;;;;;;5149471;27;20157;-75
2022/01/22 00:40:18;;;;;;;2.80;0.85;;;-0.90;99.90;;;;;;5131901;27;20170;-75
2022/01/22 00:42:46;;;;;;;3.40;1.13;;;-1.10;99.90;;;;;;5131978;27;20227;-75
2022/01/22 00:45:13;;;;;;;1.88;1.25;;;-1.20;99.90;;;;;;5150390;27;20150;-75
2022/01/22 00:47:39;;;;;;;1.98;0.95;;;-1.40;99.90;;;;;;5131830;27;20174;-74
2022/01/22 00:50:11;;;;;;;2.63;1.00;;;-1.50;99.90;;;;;;5132042;28;20174;-75
2022/01/22 00:52:39;;;;;;;1.30;0.80;;;-1.70;99.90;;;;;;5150434;27;20189;-75
2022/01/22 00:55:05;;;;;;;1.00;0.80;;;-1.80;99.90;;;;;;5150307;27;20181;-75
2022/01/22 00:57:31;;;;;;;2.03;0.90;;;-1.90;99.90;;;;;;5131789;28;20174;-74
2022/01/22 00:59:57;;;;;;;1.80;0.90;;;-1.90;99.90;;;;;;5131552;28;20322;-75
2022/01/22 01:02:23;;;;;;;0.98;0.75;;;-1.80;99.90;;;;;;5150136;28;20190;-74
2022/01/22 01:04:50;;;;;;;2.30;0.85;;;-1.80;99.90;;;;;;5150181;28;20181;-75
2022/01/22 01:07:16;;;;;;;2.97;1.15;;;-1.70;99.90;;;;;;5150169;28;20162;-75
2022/01/22 01:09:42;;;;;;;1.27;0.85;;;-1.60;99.90;;;;;;5150137;28;20166;-75
2022/01/22 01:12:11;;;;;;;11.38;1.00;;;-1.60;99.90;;;;;;5150033;28;20193;-74
2022/01/22 01:14:55;;;;;;;0.88;0.73;;;-1.50;99.90;;;;;;5150031;28;20166;-74
2022/01/22 01:17:47;;;;;;;2.38;1.17;;;-1.20;99.90;;;;;;5131780;28;20162;-74
2022/01/22 01:34:10;;;;;;;1.25;0.50;;;-1.70;99.90;;;;;;5153982;27;20214;-75
2022/01/22 01:36:37;;;;;;;1.60;0.80;;;-1.80;99.90;;;;;;5135383;27;20201;-74
2022/01/22 01:39:07;;;;;;;1.10;0.47;;;-1.80;99.90;;;;;;5153919;27;20169;-74
2022/01/22 01:43:59;;;;;;;0.63;0.52;;;-1.90;99.90;;;;;;5153827;27;20253;-74
2022/01/22 01:46:29;;;;;;;3.65;0.80;;;-1.90;99.90;;;;;;5153754;27;20505;-75
2022/01/22 01:48:55;;;;;;;1.30;0.95;;;-1.90;99.90;;;;;;5135123;27;20170;-75
2022/01/22 01:51:24;;;;;;;2.17;0.88;;;-2.00;99.90;;;;;;5153595;27;20177;-75
2022/01/22 01:53:59;;;;;;;1.98;1.00;;;-2.10;99.90;;;;;;5153514;27;20190;-75
2022/01/22 01:59:15;;;;;;;2.67;1.23;;;-2.30;99.90;;;;;;5153619;27;20161;-75
2022/01/22 02:01:42;;;;;;;0.75;0.63;;;-2.30;99.90;;;;;;5135062;27;20660;-75
2022/01/22 02:04:10;;;;;;;1.63;1.00;;;-2.30;99.90;;;;;;5153299;27;20182;-75
2022/01/22 02:06:37;;;;;;;2.25;0.73;;;-2.30;99.90;;;;;;5153466;27;20159;-75
2022/01/22 02:09:09;;;;;;;1.20;1.10;;;-2.30;99.90;;;;;;5134960;27;20257;-75
2022/01/22 02:11:36;;;;;;;2.20;0.57;;;-2.30;99.90;;;;;;5153336;27;20150;-75
2022/01/22 02:23:30;;;;;;;1.65;0.88;;;-2.40;99.90;;;;;;5153171;27;20198;-76
2022/01/22 02:25:10;;;;;;;1.42;1.10;;;-2.50;99.90;;;;;;5153246;27;20156;-75
2022/01/22 02:27:36;;;;;;;1.83;1.10;;;-2.60;99.90;;;;;;5134573;27;20166;-75
2022/01/22 02:30:03;;;;;;;1.52;0.80;;;-2.70;99.90;;;;;;5153007;27;20162;-75
2022/01/22 02:35:06;;;;;;;1.98;1.50;;;-2.90;99.90;;;;;;5152915;27;20646;-75
2022/01/22 02:37:36;;;;;;;0.93;0.68;;;-2.90;99.90;;;;;;5152915;27;20146;-75
2022/01/22 02:40:12;;;;;;;1.17;1.08;;;-2.90;99.90;;;;;;5152929;27;20172;-75
2022/01/22 02:42:38;;;;;;;2.70;1.00;;;-2.80;99.90;;;;;;5152629;27;20270;-74
2022/01/22 02:45:09;;;;;;;2.08;1.08;;;-2.70;99.90;;;;;;5152749;27;20162;-74
2022/01/22 02:47:35;;;;;;;2.47;0.95;;;-2.70;99.90;;;;;;5152688;27;20706;-74
2022/01/22 02:50:02;;;;;;;1.77;1.15;;;-2.70;99.90;;;;;;5152573;27;20162;-75
2022/01/22 02:52:28;;;;;;;1.35;0.70;;;-2.80;99.90;;;;;;5133964;27;20193;-75
2022/01/22 02:54:55;;;;;;;2.63;1.42;;;-2.80;99.90;;;;;;5152407;27;20189;-75
2022/01/22 02:57:21;;;;;;;1.38;0.90;;;-2.80;99.90;;;;;;5152534;27;20166;-75
2022/01/22 02:59:47;;;;;;;2.92;1.15;;;-2.80;99.90;;;;;;5152201;27;20210;-74
2022/01/22 03:02:14;;;;;;;2.80;1.45;;;-2.80;99.90;;;;;;5133681;27;20197;-74
2022/01/22 03:04:42;;;;;;;6.60;1.60;;;-2.80;99.90;;;;;;5152246;27;20170;-75
2022/01/22 03:07:08;;;;;;;2.28;1.40;;;-2.80;99.90;;;;;;5133855;27;20622;-75
2022/01/22 03:09:41;;;;;;;1.75;1.60;;;-2.90;99.90;;;;;;5152346;27;20155;-75
2022/01/22 03:27:50;;;;;;;2.38;1.40;;;-2.60;99.90;;;;;;5110979;28;20162;-75
2022/01/22 03:30:17;;;;;;;1.67;1.13;;;-2.70;99.90;;;;;;5092572;28;20355;-74
2022/01/22 03:32:48;;;;;;;1.38;1.23;;;-2.90;99.90;;;;;;5110620;28;20195;-75
2022/01/22 03:37:46;;;;;;;11.05;1.10;;;-2.90;99.90;;;;;;5110556;28;20228;-74
2022/01/22 03:40:14;;;;;;;1.10;0.82;;;-2.80;99.90;;;;;;5110526;28;20179;-74
2022/01/22 03:42:42;;;;;;;1.45;1.23;;;-2.80;99.90;;;;;;5110451;28;20202;-74
2022/01/22 03:45:10;;;;;;;1.17;1.00;;;-2.80;99.90;;;;;;5110281;28;20156;-75
2022/01/22 03:47:37;;;;;;;1.48;0.55;;;-2.60;99.90;;;;;;5110277;28;20174;-74
2022/01/22 03:50:05;;;;;;;4.82;2.63;;;-2.40;99.90;;;;;;5110499;28;20156;-74
2022/01/22 03:52:31;;;;;;;2.05;0.80;;;-2.40;99.90;;;;;;5109588;28;20229;-75
2022/01/22 03:54:57;;;;;;;1.42;1.00;;;-2.30;99.90;;;;;;5110179;28;20195;-74
2022/01/22 03:57:24;;;;;;;0.60;0.60;;;-2.20;99.90;;;;;;5091926;28;20171;-75
2022/01/22 03:59:53;;;;;;;0.82;0.43;;;-2.00;99.90;;;;;;5109891;28;20222;-75
2022/01/22 04:04:50;;;;;;;0.43;0.43;;;-1.90;99.90;;;;;;5110282;28;20159;-74
2022/01/22 04:09:44;;;;;;;0.70;0.47;;;-1.70;99.90;;;;;;5110156;28;20554;-75
2022/01/22 04:12:17;;;;;;;0.45;0.43;;;-1.70;99.90;;;;;;5109954;28;20183;-75
2022/01/22 04:14:51;;;;;;;0.82;0.70;;;-1.60;99.90;;;;;;5091565;28;20175;-75
2022/01/22 04:24:46;;;;;;;1.15;0.90;;;-1.60;99.90;;;;;;5091403;28;20194;-75
2022/01/22 04:25:42;;;;;;;1.23;0.65;;;-1.40;99.90;;;;;;5109901;28;20157;-74
2022/01/22 04:28:09;;;;;;;0.73;0.73;;;-1.40;99.90;;;;;;5109699;28;20172;-74
2022/01/22 04:30:35;;;;;;;0.77;0.65;;;-1.40;99.90;;;;;;5109729;28;20156;-74
2022/01/22 04:33:04;;;;;;;0.98;0.60;;;-1.30;99.90;;;;;;5091603;28;20195;-75
2022/01/22 04:35:31;;;;;;;0.90;0.50;;;-1.40;99.90;;;;;;5109608;28;20195;-75
2022/01/22 04:37:57;;;;;;;1.05;0.70;;;-1.40;99.90;;;;;;5091163;28;20216;-75
2022/01/22 04:40:23;;;;;;;1.05;0.80;;;-1.40;99.90;;;;;;5109644;28;20183;-74
2022/01/22 04:42:50;;;;;;;0.50;0.50;;;-1.50;99.90;;;;;;5091396;28;20195;-74
2022/01/22 04:45:29;;;;;;;0.60;0.60;;;-1.50;99.90;;;;;;5109539;28;20171;-75
2022/01/22 04:55:39;;;;;;;0.40;0.40;;;-1.60;99.90;;;;;;5109300;28;20212;-74
2022/01/22 04:58:06;;;;;;;1.63;0.47;;;-1.60;99.90;;;;;;5091203;28;20168;-75
2022/01/22 05:00:35;;;;;;;1.23;0.63;;;-1.60;99.90;;;;;;5090867;28;20684;-75
2022/01/22 05:03:03;;;;;;;1.92;0.63;;;-1.70;99.90;;;;;;5091075;28;20221;-74
2022/01/22 05:05:29;;;;;;;6.35;1.00;;;-1.70;99.90;;;;;;5113381;28;20162;-74
2022/01/22 05:07:55;;;;;;;2.05;0.82;;;-1.70;99.90;;;;;;5095348;28;20261;-75
2022/01/22 05:10:22;;;;;;;1.48;0.80;;;-1.70;99.90;;;;;;5095291;28;20175;-75
2022/01/22 05:12:49;;;;;;;1.55;0.73;;;-1.60;99.90;;;;;;5094988;28;20221;-75
2022/01/22 05:15:17;;;;;;;1.92;1.10;;;-1.60;99.90;;;;;;5113371;28;20198;-74
2022/01/22 05:17:45;;;;;;;1.67;0.70;;;-1.70;99.90;;;;;;5113415;28;20170;-75
2022/01/22 05:20:19;;;;;;;2.83;0.95;;;-1.70;99.90;;;;;;5095036;28;20231;-75
2022/01/22 05:25:19;;;;;;;1.65;0.63;;;-1.80;99.90;;;;;;5113087;28;20162;-75
2022/01/22 05:33:27;;;;;;;2.63;0.85;;;-2.10;99.90;;;;;;5113083;28;20199;-74
2022/01/22 05:38:35;;;;;;;2.80;1.70;;;-2.10;99.90;;;;;;5113161;28;20170;-74
2022/01/22 05:41:01;;;;;;;4.88;2.00;;;-2.10;99.90;;;;;;5094613;28;20199;-75
2022/01/22 05:43:27;;;;;;;5.18;1.65;;;-2.10;99.90;;;;;;5094634;28;20206;-74
2022/01/22 05:45:54;;;;;;;2.72;1.67;;;-2.10;99.90;;;;;;5094513;28;20167;-75
2022/01/22 05:48:20;;;;;;;3.00;1.25;;;-2.10;99.90;;;;;;5094412;28;20175;-75
2022/01/22 05:50:59;;;;;;;3.15;0.82;;;-2.10;99.90;;;;;;5112654;28;20163;-75
2022/01/22 06:01:20;;;;;;;2.90;1.20;;;-2.40;99.90;;;;;;5112277;28;20226;-75
2022/01/22 06:03:47;;;;;;;3.92;2.20;;;-2.50;99.90;;;;;;5112392;28;20155;-75
2022/01/22 06:06:14;;;;;;;2.92;1.42;;;-2.50;99.90;;;;;;5112294;28;20178;-74
2022/01/22 06:08:46;;;;;;;1.45;1.00;;;-2.50;99.90;;;;;;5094274;28;20235;-75
2022/01/22 06:11:21;;;;;;;3.58;1.23;;;-2.50;99.90;;;;;;5094226;28;20195;-75
2022/01/22 06:13:48;;;;;;;2.10;0.77;;;-2.60;99.90;;;;;;5112166;28;20166;-75
2022/01/22 06:16:20;;;;;;;3.10;1.55;;;-2.60;99.90;;;;;;5111479;28;20184;-75
2022/01/22 06:18:46;;;;;;;2.13;1.60;;;-2.60;99.90;;;;;;5112258;28;20171;-74
2022/01/22 06:21:13;;;;;;;5.38;2.00;;;-2.60;99.90;;;;;;5093753;28;20199;-75
2022/01/22 06:23:40;;;;;;;2.63;1.33;;;-2.70;99.90;;;;;;5112058;28;20155;-75
2022/01/22 06:26:07;;;;;;;6.47;1.70;;;-2.70;99.90;;;;;;5093964;28;20636;-75
2022/01/22 06:28:35;;;;;;;4.57;1.13;;;-2.70;99.90;;;;;;5111875;28;20170;-75
2022/01/22 06:31:05;;;;;;;3.25;1.60;;;-2.70;99.90;;;;;;5093634;28;20178;-75
2022/01/22 06:33:31;;;;;;;2.47;1.35;;;-2.70;99.90;;;;;;5111990;28;20168;-75
2022/01/22 06:35:57;;;;;;;2.35;1.35;;;-2.70;99.90;;;;;;5111771;28;20195;-75
2022/01/22 06:38:23;;;;;;;1.88;1.27;;;-2.60;99.90;;;;;;5093627;28;20191;-75
2022/01/22 06:43:34;;;;;;;3.67;1.15;;;-2.40;99.90;;;;;;5111870;28;20167;-74
2022/01/22 06:45:59;;;;;;;3.17;1.00;;;-2.30;99.90;;;;;;5111552;28;20159;-75
2022/01/22 06:48:26;;;;;;;2.53;1.15;;;-2.20;99.90;;;;;;5111571;28;20165;-75
2022/01/22 06:50:53;;;;;;;1.73;1.05;;;-2.20;99.90;;;;;;5093254;28;20175;-75
2022/01/22 06:53:19;;;;;;;1.92;1.10;;;-2.00;99.90;;;;;;5111411;28;20167;-75
2022/01/22 06:55:52;;;;;;;6.13;1.55;;;-1.90;99.90;;;;;;5093190;28;20290;-75
2022/01/22 06:58:18;;;;;;;3.88;1.10;;;-1.80;99.90;;;;;;5111471;28;20235;-74
2022/01/22 07:00:44;;;;;;;5.65;1.63;;;-1.80;99.90;;;;;;5111080;28;20219;-74
2022/01/22 07:03:10;;;;;;;4.00;1.75;;;-1.80;99.90;;;;;;5092764;28;20191;-75
2022/01/22 07:05:36;;;;;;;4.03;1.45;;;-1.70;99.90;;;;;;5111278;28;20186;-75
2022/01/22 07:08:02;;;;;;;5.55;2.00;;;-1.60;99.90;;;;;;5111088;28;20159;-75
2022/01/22 07:10:28;;;;;;;6.60;3.50;;;-1.50;99.90;;;;;;5092790;28;20170;-75
2022/01/22 07:12:53;;;;;;;7.70;2.92;;;-1.50;99.90;;;;;;5111093;28;20191;-74
2022/01/22 07:15:20;;;;;;;5.25;2.80;;;-1.50;99.90;;;;;;5110943;28;20183;-75
2022/01/22 07:17:47;;;;;;;4.93;2.78;;;-1.60;99.90;;;;;;5110878;28;20174;-75
2022/01/22 07:20:17;;;;;;;2.35;1.52;;;-1.40;99.90;;;;;;5110764;28;20155;-74
2022/01/22 07:25:17;;;;;;;8.50;2.50;;;-0.90;99.90;;;;;;5110708;28;20182;-74
2022/01/22 07:27:43;;;;;;;5.88;2.65;;;-0.70;99.90;;;;;;5091430;28;20175;-74
2022/01/22 07:30:09;;;;;;;5.47;1.65;;;-0.70;99.90;;;;;;5110689;28;20166;-75
2022/01/22 07:32:38;;;;;;;2.30;1.70;;;-0.60;99.90;;;;;;5110470;28;20191;-75
2022/01/22 07:35:05;;;;;;;2.67;1.45;;;-0.60;99.90;;;;;;5110460;28;20214;-76
2022/01/22 07:37:31;;;;;;;3.42;2.05;;;-0.60;99.90;;;;;;5110671;28;20196;-75
2022/01/22 07:39:57;;;;;;;4.47;2.08;;;-0.30;99.90;;;;;;5103233;28;20195;-75
2022/01/22 07:42:23;;;;;;;4.07;2.47;;;0.10;99.90;;;;;;5121057;28;20195;-75
2022/01/22 07:44:49;;;;;;;3.35;1.92;;;0.40;99.90;;;;;;5092054;28;20615;-74
2022/01/22 07:47:15;;;;;;;4.55;2.25;;;0.30;99.90;;;;;;5124708;28;20175;-74
2022/01/22 07:49:41;;;;;;;6.28;3.20;;;0.10;99.90;;;;;;5130577;28;20155;-74
2022/01/22 07:52:08;;;;;;;7.97;2.92;;;0.10;99.90;;;;;;5130541;28;20190;-74
2022/01/22 07:54:34;;;;;;;6.63;2.55;;;0.20;99.90;;;;;;5126443;28;20179;-74
2022/01/22 07:57:02;;;;;;;9.63;3.40;;;0.10;99.90;;;;;;5109812;28;20179;-75
2022/01/22 07:59:30;;;;;;;5.90;2.80;;;0.10;99.90;;;;;;5107959;28;20155;-74
2022/01/22 08:01:56;;;;;;;4.38;2.38;;;0.00;99.90;;;;;;5071419;28;20222;-75
2022/01/22 08:04:25;;;;;;;4.00;2.38;;;-0.10;99.90;;;;;;5071422;28;20167;-75
2022/01/22 08:06:53;;;;;;;3.88;2.60;;;0.10;99.90;;;;;;5071660;28;20184;-77
2022/01/22 08:09:21;;;;;;;3.95;1.73;;;0.40;99.90;;;;;;5089666;28;20521;-75
2022/01/22 08:11:48;;;;;;;7.35;3.47;;;0.70;99.90;;;;;;5094189;28;20206;-75
2022/01/22 08:14:14;;;;;;;3.95;1.85;;;1.10;99.90;;;;;;5091449;28;20183;-74
2022/01/22 08:16:40;;;;;;;3.35;1.33;;;1.40;99.90;;;;;;5109782;28;20187;-73
2022/01/22 08:19:06;;;;;;;9.48;2.47;;;1.60;99.90;;;;;;5091688;28;20167;-75
2022/01/22 08:21:33;;;;;;;4.40;2.75;;;1.70;99.90;;;;;;5109719;28;20272;-75
2022/01/22 08:23:58;;;;;;;4.32;1.85;;;1.80;99.90;;;;;;5091563;28;20174;-74
2022/01/22 08:26:30;;;;;;;2.88;1.58;;;2.40;99.90;;;;;;5109740;28;20246;-74
2022/01/22 08:28:57;;;;;;;3.67;1.60;;;4.20;99.90;;;;;;5091225;28;20170;-73
2022/01/22 08:36:40;;;;;;;3.95;1.70;;;10.00;99.90;;;;;;5109440;28;20197;-74
2022/01/22 08:39:07;;;;;;;2.10;1.50;;;9.90;99.50;;;;;;5074659;28;20207;-75
2022/01/22 08:41:33;;;;;;;2.80;1.40;;;9.50;99.90;;;;;;5070542;28;20171;-75
2022/01/22 08:44:00;;;;;;;7.40;2.20;;;10.00;99.90;;;;;;5070840;28;20208;-75
2022/01/22 08:46:27;;;;;;;1.52;1.23;;;11.00;99.20;;;;;;5098125;28;20164;-75
2022/01/22 08:48:54;;;;;;;6.15;2.13;;;10.10;99.90;;;;;;5091073;28;20198;-75
2022/01/22 08:51:21;;;;;;;3.88;1.30;;;10.40;99.90;;;;;;5109248;28;20152;-75
2022/01/22 08:53:48;;;;;;;4.43;1.38;;;11.10;99.80;;;;;;5109237;28;20557;-75
2022/01/22 08:56:15;;;;;;;3.10;1.33;;;11.90;99.20;;;;;;5109246;28;20194;-75
2022/01/22 08:58:41;;;;;;;1.40;0.90;;;12.40;98.70;;;;;;5102507;28;20262;-75
2022/01/22 09:01:07;;;;;;;1.48;0.90;;;11.50;99.90;;;;;;5111984;28;20288;-75
2022/01/22 09:03:35;;;;;;;2.92;1.00;;;11.90;99.90;;;;;;5090946;28;20179;-75
2022/01/22 09:06:04;;;;;;;0.20;0.20;;;10.50;99.90;;;;;;5090740;28;20238;-74
2022/01/22 09:08:30;;;;;;;0.00;0.00;;;10.50;99.90;;;;;;5090761;28;20278;-75
2022/01/22 09:10:56;;;;;;;0.00;0.00;;;9.90;99.90;;;;;;5108605;28;20717;-77
2022/01/22 09:13:23;;;;;;;0.10;0.10;;;10.10;99.90;;;;;;5108922;28;20218;-78
2022/01/22 09:15:51;;;;;;;0.15;0.10;;;10.50;99.90;;;;;;5109034;28;20206;-74
2022/01/22 09:18:17;;;;;;;0.10;0.10;;;10.10;99.90;;;;;;5090654;28;20286;-77
2022/01/22 09:20:55;;;;;;;0.10;0.10;;;9.70;99.90;;;;;;5090831;28;20604;-77
2022/01/22 09:23:21;;;;;;;0.13;0.10;;;9.90;99.90;;;;;;5108897;28;20151;-77
2022/01/22 09:25:47;;;;;;;3.40;0.20;;;9.30;99.90;;;;;;5124335;28;20226;-76
2022/01/22 09:28:14;;;;;;;0.20;0.20;;;9.00;99.90;;;;;;5129129;28;20248;-76
2022/01/22 09:30:41;;;;;;;0.10;0.10;;;10.70;99.90;;;;;;5111026;28;20230;-76
2022/01/22 09:33:07;;;;;;;0.05;0.05;;;11.50;99.90;;;;;;5128776;28;20162;-76
2022/01/22 09:35:33;;;;;;;0.00;0.00;;;10.70;99.90;;;;;;5129093;28;20186;-73
2022/01/22 09:37:59;;;;;;;0.82;0.10;;;10.90;99.90;;;;;;5128906;28;20220;-75
2022/01/22 09:40:29;;;;;;;0.20;0.20;;;9.80;99.90;;;;;;5110872;28;20191;-75
2022/01/22 09:42:57;;;;;;;0.10;0.10;;;9.70;99.90;;;;;;5119570;28;20175;-73
2022/01/22 09:45:23;;;;;;;0.28;0.17;;;10.00;99.90;;;;;;5095264;28;20190;-75
2022/01/22 09:47:51;;;;;;;6.18;0.28;;;10.90;99.90;;;;;;5108371;28;20162;-75
2022/01/22 09:50:19;;;;;;;0.10;0.10;;;11.20;99.90;;;;;;5108667;28;20223;-73
2022/01/22 09:52:46;;;;;;;0.00;0.00;;;11.40;99.90;;;;;;5111917;28;20166;-76
2022/01/22 09:55:13;;;;;;;0.22;0.22;;;10.80;99.90;;;;;;5094156;28;20244;-73
2022/01/22 09:57:39;;;;;;;0.90;0.32;;;10.10;99.90;;;;;;5112122;28;20163;-75
2022/01/22 10:00:09;;;;;;;0.47;0.28;;;9.70;99.90;;;;;;5112205;28;20227;-76
2022/01/22 10:02:48;;;;;;;0.20;0.10;;;9.70;99.90;;;;;;5093592;28;20209;-75
2022/01/22 10:05:32;;;;;;;0.15;0.15;;;9.40;99.90;;;;;;5112383;28;20231;-74
2022/01/22 10:08:16;;;;;;;0.30;0.30;;;9.00;99.90;;;;;;5111863;28;20227;-73
2022/01/22 10:10:42;;;;;;;3.00;0.30;;;9.10;99.90;;;;;;5112093;28;20167;-73
2022/01/22 10:13:08;;;;;;;0.95;0.17;;;9.70;99.90;;;;;;5111609;28;20160;-74
2022/01/22 10:15:35;;;;;;;1.85;0.20;;;10.50;99.90;;;;;;5111846;28;20247;-75
2022/01/22 10:18:02;;;;;;;0.15;0.10;;;9.90;99.90;;;;;;5124986;28;20195;-73
2022/01/22 10:20:32;;;;;;;0.10;0.10;;;9.20;99.90;;;;;;5132216;28;20221;-73
2022/01/22 10:23:00;;;;;;;0.15;0.15;;;9.20;99.90;;;;;;5104601;28;20210;-74
2022/01/22 10:25:38;;;;;;;0.10;0.10;;;9.60;99.90;;;;;;5104609;28;20306;-74
2022/01/22 10:28:14;;;;;;;0.10;0.10;;;9.80;99.90;;;;;;5113823;28;20216;-73
2022/01/22 10:30:43;;;;;;;2.63;0.15;;;10.30;99.90;;;;;;5132262;28;20193;-75
2022/01/22 10:33:31;;;;;;;1.45;0.13;;;10.20;99.90;;;;;;5113817;28;20163;-75
2022/01/22 10:36:15;;;;;;;0.10;0.10;;;10.40;99.90;;;;;;5113832;28;20191;-75
2022/01/22 10:38:52;;;;;;;2.40;0.13;;;10.10;99.90;;;;;;5132059;28;20143;-75
2022/01/22 10:41:50;;;;;;;0.20;0.17;;;9.40;99.90;;;;;;5119343;28;20190;-77
2022/01/22 10:44:22;;;;;;;3.83;0.20;;;9.90;99.90;;;;;;5111507;28;20171;-77
2022/01/22 10:49:18;;;;;;;0.10;0.10;;;10.30;99.90;;;;;;5111452;28;20232;-73
2022/01/22 10:51:51;;;;;;;0.00;0.00;;;10.60;99.90;;;;;;5108758;28;20228;-74
2022/01/22 10:54:22;;;;;;;2.47;0.30;;;10.00;99.90;;;;;;5131666;28;20172;-76
2022/01/22 10:56:49;;;;;;;0.10;0.10;;;10.10;99.90;;;;;;5113127;28;20194;-77
2022/01/22 10:59:18;;;;;;;0.22;0.17;;;10.60;99.90;;;;;;5131594;28;20147;-75
2022/01/22 11:01:43;;;;;;;0.40;0.17;;;9.80;99.90;;;;;;5131334;28;20255;-77
2022/01/22 11:04:13;;;;;;;0.10;0.10;;;9.90;99.90;;;;;;5113122;28;20192;-75
2022/01/22 11:06:51;;;;;;;0.30;0.20;;;10.10;99.90;;;;;;5131448;28;20155;-76
2022/01/22 11:09:18;;;;;;;2.90;0.35;;;9.10;99.90;;;;;;5131347;28;20155;-76
2022/01/22 11:11:44;;;;;;;0.32;0.25;;;9.50;99.90;;;;;;5112862;28;20205;-75
2022/01/22 11:14:11;;;;;;;0.20;0.13;;;10.00;99.90;;;;;;5131079;28;20159;-75
2022/01/22 11:16:40;;;;;;;0.47;0.20;;;10.30;99.90;;;;;;5112819;28;20208;-75
2022/01/22 11:19:09;;;;;;;0.00;0.00;;;10.50;99.90;;;;;;5131089;28;20277;-75
2022/01/22 11:21:40;;;;;;;0.10;0.10;;;10.00;99.90;;;;;;5131168;28;20190;-75
2022/01/22 11:24:11;;;;;;;1.13;0.10;;;10.40;99.90;;;;;;5131301;28;20154;-74
2022/01/22 11:26:39;;;;;;;0.10;0.10;;;11.50;99.90;;;;;;5112787;28;20200;-75
2022/01/22 11:29:05;;;;;;;0.10;0.10;;;12.00;99.90;;;;;;5131066;28;20151;-75
2022/01/22 11:31:33;;;;;;;0.17;0.10;;;11.70;99.90;;;;;;5112456;28;20228;-76
2022/01/22 11:34:00;;;;;;;0.10;0.10;;;11.00;99.90;;;;;;5130963;28;20166;-74
2022/01/22 11:36:38;;;;;;;0.10;0.10;;;10.70;99.90;;;;;;5130694;28;20628;-74
2022/01/22 11:39:05;;;;;;;0.70;0.10;;;10.50;99.90;;;;;;5130787;28;20219;-76
2022/01/22 11:41:32;;;;;;;0.75;0.40;;;10.40;99.90;;;;;;5112392;28;20247;-75
2022/01/22 11:44:12;;;;;;;0.20;0.13;;;10.30;99.90;;;;;;5112331;28;20174;-75
2022/01/22 11:46:43;;;;;;;0.47;0.20;;;11.10;99.90;;;;;;5127250;28;20170;-75
2022/01/22 11:49:18;;;;;;;0.10;0.10;;;11.00;99.90;;;;;;5130876;28;20155;-75
2022/01/22 11:51:49;;;;;;;1.65;0.13;;;10.80;99.90;;;;;;5112411;28;20636;-76
2022/01/22 11:54:17;;;;;;;0.52;0.10;;;11.10;99.90;;;;;;5130530;28;20169;-76
2022/01/22 11:56:55;;;;;;;0.00;0.00;;;10.20;99.90;;;;;;5112285;28;20262;-76
2022/01/22 11:59:26;;;;;;;0.10;0.10;;;10.30;99.90;;;;;;5112015;28;20184;-75
2022/01/22 12:02:04;;;;;;;0.10;0.10;;;10.00;99.90;;;;;;5111905;28;20214;-76
2022/01/22 12:04:39;;;;;;;0.65;0.10;;;9.20;99.90;;;;;;5112140;28;20169;-78
2022/01/22 12:07:05;;;;;;;1.30;0.43;;;8.90;99.90;;;;;;5112019;28;20264;-75
2022/01/22 12:09:33;;;;;;;0.25;0.20;;;8.70;99.90;;;;;;5130224;28;20181;-76
2022/01/22 12:15:20;;;;;;;0.10;0.10;;;9.70;99.90;;;;;;5129997;28;20197;-74
2022/01/22 12:17:56;;;;;;;0.20;0.15;;;10.00;99.90;;;;;;5111990;28;20170;-75
2022/01/22 12:23:14;;;;;;;0.10;0.10;;;10.00;99.50;;;;;;5130246;28;20151;-73
2022/01/22 12:25:39;;;;;;;0.10;0.10;;;9.70;99.70;;;;;;5111787;28;20191;-74
2022/01/22 12:28:10;;;;;;;1.90;0.10;;;10.30;98.60;;;;;;5130033;28;20155;-74
2022/01/22 12:30:44;;;;;;;0.10;0.10;;;9.90;98.90;;;;;;5130133;28;20214;-75
2022/01/22 12:33:14;;;;;;;0.30;0.30;;;10.30;98.70;;;;;;5128506;28;20234;-75
2022/01/22 12:35:46;;;;;;;0.13;0.13;;;10.00;99.20;;;;;;5123756;27;20201;-75
2022/01/22 12:38:36;;;;;;;1.25;0.20;;;10.10;99.00;;;;;;5131696;27;20207;-75
2022/01/22 12:44:00;;;;;;;0.32;0.20;;;8.80;99.30;;;;;;5109480;28;20143;-75
2022/01/22 12:46:28;;;;;;;0.45;0.20;;;8.80;99.60;;;;;;5090293;28;20281;-75
2022/01/22 12:48:56;;;;;;;0.40;0.10;;;8.60;99.90;;;;;;5109203;28;20178;-75
2022/01/22 12:51:26;;;;;;;0.52;0.28;;;8.80;99.50;;;;;;5090967;28;20267;-75
2022/01/22 12:53:53;;;;;;;0.15;0.10;;;8.70;99.50;;;;;;5109205;28;20170;-75
2022/01/22 12:59:05;;;;;;;0.93;0.20;;;8.80;99.10;;;;;;5109305;28;20170;-74
2022/01/22 13:01:33;;;;;;;0.40;0.22;;;8.80;99.50;;;;;;5108865;28;20222;-74
2022/01/22 13:04:03;;;;;;;15.27;1.42;;;8.60;98.80;;;;;;5091024;28;20171;-75
2022/01/22 13:06:44;;;;;;;0.70;0.10;;;8.80;99.00;;;;;;5121311;28;20212;-76
2022/01/22 13:09:11;;;;;;;0.98;0.20;;;8.60;98.80;;;;;;5128802;28;20175;-76
2022/01/22 13:11:46;;;;;;;2.42;0.28;;;8.60;99.00;;;;;;5128617;28;20213;-76
2022/01/22 13:14:14;;;;;;;0.40;0.20;;;8.70;98.50;;;;;;5113376;28;20169;-75
2022/01/22 13:16:49;;;;;;;0.28;0.15;;;8.50;98.50;;;;;;5110608;28;20209;-75
2022/01/22 13:19:16;;;;;;;1.17;0.50;;;8.40;99.10;;;;;;5110655;28;20212;-77
2022/01/22 13:21:54;;;;;;;0.52;0.20;;;8.30;99.00;;;;;;5097790;28;20209;-75
2022/01/22 13:24:23;;;;;;;2.30;0.20;;;8.20;99.10;;;;;;5129222;28;20180;-76
2022/01/22 13:26:54;;;;;;;0.10;0.10;;;8.10;99.70;;;;;;5113706;28;20257;-75
2022/01/22 13:29:31;;;;;;;2.70;0.35;;;8.00;99.70;;;;;;5133164;28;20171;-75
2022/01/22 13:32:02;;;;;;;1.23;0.20;;;8.10;99.90;;;;;;5114800;28;20198;-75
2022/01/22 13:34:49;;;;;;;0.30;0.10;;;8.00;99.60;;;;;;5115205;28;20178;-75
2022/01/22 13:38:02;;;;;;;0.20;0.20;;;8.10;99.60;;;;;;5133087;28;20260;-75
2022/01/22 13:48:36;;;;;;;1.75;0.20;;;8.10;99.60;;;;;;5132602;28;20189;-75
2022/01/22 13:51:03;;;;;;;0.10;0.10;;;7.70;99.80;;;;;;5114489;28;20195;-75
2022/01/22 13:53:31;;;;;;;0.20;0.20;;;7.60;99.90;;;;;;5132880;28;20159;-75
2022/01/22 13:56:10;;;;;;;4.18;0.30;;;7.60;99.90;;;;;;5132854;28;20186;-74
2022/01/22 13:58:37;;;;;;;0.88;0.15;;;7.60;99.90;;;;;;5132543;28;20189;-75
2022/01/22 14:01:27;;;;;;;3.28;0.20;;;7.50;99.90;;;;;;5114113;28;20222;-73
2022/01/22 14:04:10;;;;;;;0.20;0.20;;;7.40;99.90;;;;;;5131404;28;20166;-77
2022/01/22 14:06:35;;;;;;;1.73;1.05;;;7.40;99.90;;;;;;5132706;28;20159;-75
2022/01/22 14:09:20;;;;;;;1.35;1.10;;;7.40;99.90;;;;;;5132378;28;20237;-75
2022/01/22 14:12:06;;;;;;;0.20;0.20;;;7.30;99.90;;;;;;5114237;28;20287;-75
2022/01/22 14:14:54;;;;;;;2.38;0.90;;;7.20;99.90;;;;;;5114360;28;20186;-75
2022/01/22 14:17:21;;;;;;;2.80;1.10;;;7.20;99.90;;;;;;5132614;28;20163;-75
2022/01/22 14:19:58;;;;;;;0.70;0.50;;;7.10;99.90;;;;;;5113778;28;20173;-75
2022/01/22 14:22:24;;;;;;;2.45;0.80;;;7.10;99.90;;;;;;5132288;28;20253;-75
2022/01/22 14:24:50;;;;;;;0.47;0.43;;;7.00;99.70;;;;;;5114122;28;20227;-75
2022/01/22 14:27:20;;;;;;;1.08;0.57;;;7.00;99.90;;;;;;5114323;28;20166;-75
2022/01/22 14:29:47;;;;;;;2.33;0.90;;;6.90;99.90;;;;;;5132266;28;20190;-75
2022/01/22 14:32:17;;;;;;;1.75;0.82;;;6.90;99.90;;;;;;5131609;28;20190;-76
2022/01/22 14:34:45;;;;;;;4.65;0.93;;;6.80;99.80;;;;;;5109885;28;20163;-75
2022/01/22 14:37:25;;;;;;;4.35;1.27;;;6.80;99.30;;;;;;5100507;28;20198;-76
2022/01/22 14:45:31;;;;;;;2.42;0.98;;;6.70;98.70;;;;;;5114890;28;20182;-76
2022/01/22 14:48:01;;;;;;;3.50;1.67;;;6.70;98.70;;;;;;5113476;28;20242;-76
2022/01/22 14:50:28;;;;;;;3.28;1.52;;;6.60;99.10;;;;;;5113249;28;20198;-76
2022/01/22 14:52:59;;;;;;;0.82;0.70;;;6.50;98.90;;;;;;5130157;28;20190;-75
2022/01/22 14:55:27;;;;;;;2.50;0.95;;;6.50;99.20;;;;;;5113066;28;20195;-75
2022/01/22 14:57:53;;;;;;;6.55;0.70;;;6.50;99.10;;;;;;5119851;28;20183;-75
2022/01/22 15:00:20;;;;;;;2.00;0.93;;;6.50;99.20;;;;;;5110793;28;20247;-75
2022/01/22 15:02:47;;;;;;;4.20;1.25;;;6.30;99.30;;;;;;5109756;28;20190;-75
2022/01/22 15:05:14;;;;;;;2.10;0.45;;;6.20;99.60;;;;;;5111275;28;20186;-75
2022/01/22 15:07:45;;;;;;;0.77;0.57;;;6.40;99.50;;;;;;5093133;28;20185;-75